Time;durP1;ratioP1;P1;durP2;ratioP2;P2;SDS_P1;SDS_P2;PMS_P1;PMS_P2;Temp;Humidity;BMP_temperature;BMP_pressure;BME280_temperature;BME280_humidity;BME280_pressure;Samples;Min_cycle;Max_cycle;Signal;HPM_P1;HPM_P2
2024/01/10 00:01:59;;;;;;;7.35;6.55;;;;;;;-146.58;100.00;69501.63;5031791;28;20506;-62
2024/01/10 00:04:24;;;;;;;10.85;8.80;;;;;;;-146.58;100.00;69501.63;5029879;28;20378;-62
2024/01/10 00:06:50;;;;;;;9.23;7.90;;;;;;;-146.58;100.00;69501.63;5031568;28;20039;-63
2024/01/10 00:09:15;;;;;;;11.07;8.45;;;;;;;-146.58;100.00;69501.63;5030117;28;20041;-63
2024/01/10 00:11:40;;;;;;;7.88;7.07;;;;;;;-146.58;100.00;69501.63;5031108;28;20013;-63
2024/01/10 00:14:06;;;;;;;8.25;7.03;;;;;;;-146.58;100.00;69501.63;5030250;28;20042;-63
2024/01/10 00:16:31;;;;;;;11.82;6.72;;;;;;;-146.58;100.00;69501.63;5031237;28;20672;-63
2024/01/10 00:18:57;;;;;;;12.57;6.95;;;;;;;-146.58;100.00;69501.63;5029725;28;20049;-63
2024/01/10 00:21:22;;;;;;;8.48;7.65;;;;;;;-146.58;100.00;69501.63;5031730;28;20022;-63
2024/01/10 00:23:47;;;;;;;9.23;8.32;;;;;;;-146.58;100.00;69501.63;5029783;28;20026;-63
2024/01/10 00:26:13;;;;;;;7.35;6.50;;;;;;;-146.58;100.00;69501.63;5031037;28;20071;-63
2024/01/10 00:28:38;;;;;;;7.45;6.75;;;;;;;-146.58;100.00;69501.63;5029927;28;20025;-62
2024/01/10 00:31:04;;;;;;;9.68;6.93;;;;;;;-146.58;100.00;69501.63;5030306;28;20457;-65
2024/01/10 00:33:29;;;;;;;11.35;7.72;;;;;;;-146.58;100.00;69501.63;5029274;28;20040;-64
2024/01/10 00:35:54;;;;;;;11.10;7.57;;;;;;;-146.58;100.00;69501.63;5031064;28;20017;-65
2024/01/10 00:38:20;;;;;;;9.35;7.50;;;;;;;-146.58;100.00;69501.63;5031175;28;20032;-65
2024/01/10 00:40:45;;;;;;;8.68;6.75;;;;;;;-146.58;100.00;69501.63;5029142;28;20045;-65
2024/01/10 00:43:10;;;;;;;11.65;7.95;;;;;;;-146.58;100.00;69501.63;5031108;28;20083;-65
2024/01/10 00:45:36;;;;;;;7.63;6.93;;;;;;;-146.58;100.00;69501.63;5029221;28;20053;-65
2024/01/10 00:48:01;;;;;;;8.93;6.95;;;;;;;-146.58;100.00;69501.63;5030879;28;20389;-65
2024/01/10 00:50:27;;;;;;;11.20;8.52;;;;;;;-146.58;100.00;69501.63;5029754;28;20140;-65
2024/01/10 00:52:52;;;;;;;10.18;6.82;;;;;;;-146.58;100.00;69501.63;5030978;28;20018;-66
2024/01/10 00:55:17;;;;;;;13.32;8.93;;;;;;;-146.58;100.00;69501.63;5029384;28;20041;-67
2024/01/10 00:57:43;;;;;;;12.82;7.53;;;;;;;-146.58;100.00;69501.63;5030781;28;20021;-66
2024/01/10 01:00:10;;;;;;;10.40;7.25;;;;;;;-146.58;100.00;69501.63;5029509;28;20492;-65
2024/01/10 01:02:36;;;;;;;8.15;7.35;;;;;;;-146.58;100.00;69501.63;5030473;28;20108;-63
2024/01/10 01:05:02;;;;;;;12.88;8.68;;;;;;;-146.58;100.00;69501.63;5029322;28;20500;-63
2024/01/10 01:07:28;;;;;;;11.10;7.60;;;;;;;-146.58;100.00;69501.63;5030590;28;20026;-62
2024/01/10 01:09:53;;;;;;;12.85;8.07;;;;;;;-146.58;100.00;69501.63;5029244;28;20029;-63
2024/01/10 01:12:19;;;;;;;17.42;8.82;;;;;;;-146.58;100.00;69501.63;5030889;28;20022;-62
2024/01/10 01:14:44;;;;;;;9.98;9.07;;;;;;;-146.58;100.00;69501.63;5029162;28;20431;-62
2024/01/10 01:17:10;;;;;;;15.05;8.30;;;;;;;-146.58;100.00;69501.63;5030722;28;20021;-62
2024/01/10 01:19:35;;;;;;;10.05;7.95;;;;;;;-146.58;100.00;69501.63;5029088;28;20504;-62
2024/01/10 01:22:00;;;;;;;9.18;7.65;;;;;;;-146.58;100.00;69501.63;5030834;28;20029;-58
2024/01/10 01:24:26;;;;;;;7.80;6.53;;;;;;;-146.58;100.00;69501.63;5028872;28;20060;-62
2024/01/10 01:26:52;;;;;;;10.38;7.22;;;;;;;-146.58;100.00;69501.63;5030670;28;20025;-62
2024/01/10 01:29:17;;;;;;;14.00;8.13;;;;;;;-146.58;100.00;69501.63;5029536;28;20511;-62
2024/01/10 01:31:43;;;;;;;9.48;8.43;;;;;;;-146.58;100.00;69501.63;5030115;28;20033;-62
2024/01/10 01:34:08;;;;;;;9.05;8.05;;;;;;;-146.58;100.00;69501.63;5029339;28;20049;-63
2024/01/10 01:36:34;;;;;;;10.15;8.07;;;;;;;-146.58;100.00;69501.63;5030017;28;20025;-63
2024/01/10 01:38:59;;;;;;;10.52;7.55;;;;;;;-146.58;100.00;69501.63;5028881;28;20091;-63
2024/01/10 01:41:24;;;;;;;12.32;7.85;;;;;;;-146.58;100.00;69501.63;5030571;28;20030;-63
2024/01/10 01:43:50;;;;;;;11.73;7.68;;;;;;;-146.58;100.00;69501.63;5031525;28;20045;-63
2024/01/10 01:46:15;;;;;;;10.00;8.90;;;;;;;-146.58;100.00;69501.63;5033870;28;20400;-64
2024/01/10 01:48:41;;;;;;;8.75;7.05;;;;;;;-146.58;100.00;69501.63;5032603;28;20029;-63
2024/01/10 01:51:09;;;;;;;9.52;7.68;;;;;;;-146.58;100.00;69501.63;5034210;28;20477;-64
2024/01/10 01:53:39;;;;;;;16.65;7.00;;;;;;;-146.58;100.00;69501.63;5032305;28;20075;-62
2024/01/10 01:56:07;;;;;;;9.55;8.05;;;;;;;-146.58;100.00;69501.63;5034186;28;20606;-62
2024/01/10 01:58:33;;;;;;;9.87;8.80;;;;;;;-146.58;100.00;69501.63;5032520;28;20029;-61
2024/01/10 02:01:00;;;;;;;10.60;7.97;;;;;;;-146.58;100.00;69501.63;5033428;28;20117;-64
2024/01/10 02:03:26;;;;;;;8.20;7.15;;;;;;;-146.58;100.00;69501.63;5033968;28;20104;-65
2024/01/10 02:05:52;;;;;;;9.57;7.70;;;;;;;-146.58;100.00;69501.63;5032254;28;20039;-65
2024/01/10 02:08:17;;;;;;;10.95;6.40;;;;;;;-146.58;100.00;69501.63;5033695;28;20036;-65
2024/01/10 02:10:43;;;;;;;10.15;8.10;;;;;;;-146.58;100.00;69501.63;5032342;28;20500;-65
2024/01/10 02:13:09;;;;;;;9.00;6.82;;;;;;;-146.58;100.00;69501.63;5034080;28;20025;-65
2024/01/10 02:15:35;;;;;;;9.10;7.78;;;;;;;-146.58;100.00;69501.63;5031509;28;20057;-64
2024/01/10 02:18:01;;;;;;;11.45;7.93;;;;;;;-146.58;100.00;69501.63;5033563;28;20030;-64
2024/01/10 02:20:26;;;;;;;10.60;9.15;;;;;;;-146.58;100.00;69501.63;5032346;28;20037;-64
2024/01/10 02:22:52;;;;;;;8.93;8.02;;;;;;;-146.58;100.00;69501.63;5033889;28;20033;-64
2024/01/10 02:25:18;;;;;;;9.95;7.82;;;;;;;-146.58;100.00;69501.63;5031941;28;20382;-65
2024/01/10 02:27:43;;;;;;;8.63;7.10;;;;;;;-146.58;100.00;69501.63;5033654;28;20029;-63
2024/01/10 02:30:10;;;;;;;11.90;9.15;;;;;;;-146.58;100.00;69501.63;5032171;28;20397;-65
2024/01/10 02:32:37;;;;;;;11.30;9.85;;;;;;;-146.58;100.00;69501.63;5033051;28;20083;-64
2024/01/10 02:35:02;;;;;;;10.57;8.32;;;;;;;-146.58;100.00;69501.63;5031837;28;20061;-64
2024/01/10 02:37:28;;;;;;;10.57;7.82;;;;;;;-146.58;100.00;69501.63;5033054;28;20075;-64
2024/01/10 02:39:53;;;;;;;10.32;8.48;;;;;;;-146.58;100.00;69501.63;5031574;28;20428;-64
2024/01/10 02:42:18;;;;;;;10.35;7.68;;;;;;;-146.58;100.00;69501.63;5033293;28;20033;-64
2024/01/10 02:44:44;;;;;;;13.07;9.20;;;;;;;-146.58;100.00;69501.63;5031699;28;20041;-64
2024/01/10 02:47:11;;;;;;;12.75;7.68;;;;;;;-146.58;100.00;69501.63;5033215;28;20357;-64
2024/01/10 02:49:36;;;;;;;11.73;8.65;;;;;;;-146.58;100.00;69501.63;5031710;28;20034;-64
2024/01/10 02:52:02;;;;;;;10.50;7.80;;;;;;;-146.58;100.00;69501.63;5033198;28;20040;-64
2024/01/10 02:54:27;;;;;;;11.52;7.85;;;;;;;-146.58;100.00;69501.63;5030500;28;20377;-64
2024/01/10 02:56:52;;;;;;;9.20;7.57;;;;;;;-146.58;100.00;69501.63;5032943;28;20025;-64
2024/01/10 02:59:18;;;;;;;13.48;8.75;;;;;;;-146.58;100.00;69501.63;5031580;28;20038;-64
2024/01/10 03:01:43;;;;;;;12.98;8.20;;;;;;;-146.58;100.00;69501.63;5032285;28;20022;-64
2024/01/10 03:04:09;;;;;;;15.05;8.77;;;;;;;-146.58;100.00;69501.63;5031471;28;20404;-64
2024/01/10 03:06:34;;;;;;;14.93;7.88;;;;;;;-146.58;100.00;69501.63;5032930;28;20025;-66
2024/01/10 03:09:00;;;;;;;9.43;8.40;;;;;;;-146.58;100.00;69501.63;5031323;28;20034;-65
2024/01/10 03:11:25;;;;;;;10.68;9.15;;;;;;;-146.58;100.00;69501.63;5032939;28;20029;-65
2024/01/10 03:14:00;;;;;;;10.48;9.40;;;;;;;-146.58;100.00;69501.63;5031200;28;20386;-64
2024/01/10 03:16:25;;;;;;;8.20;7.40;;;;;;;-146.58;100.00;69501.63;5032291;28;20477;-65
2024/01/10 03:18:50;;;;;;;9.43;7.82;;;;;;;-146.58;100.00;69501.63;5030998;28;20033;-64
2024/01/10 03:21:22;;;;;;;8.43;7.32;;;;;;;-146.58;100.00;69501.63;5032348;28;20052;-65
2024/01/10 03:23:48;;;;;;;11.80;8.07;;;;;;;-146.58;100.00;69501.63;5030890;28;20048;-65
2024/01/10 03:26:13;;;;;;;8.63;7.82;;;;;;;-146.58;100.00;69501.63;5032594;28;20025;-65
2024/01/10 03:28:38;;;;;;;10.63;9.52;;;;;;;-146.58;100.00;69501.63;5030952;28;20037;-64
2024/01/10 03:31:04;;;;;;;14.52;10.18;;;;;;;-146.58;100.00;69501.63;5031907;28;20024;-65
2024/01/10 03:33:29;;;;;;;10.27;7.72;;;;;;;-146.58;100.00;69501.63;5030646;28;20025;-64
2024/01/10 03:35:54;;;;;;;8.73;7.82;;;;;;;-146.58;100.00;69501.63;5032246;28;20127;-65
2024/01/10 03:38:20;;;;;;;9.90;8.10;;;;;;;-146.58;100.00;69501.63;5032007;28;20488;-65
2024/01/10 03:40:45;;;;;;;10.55;8.00;;;;;;;-146.58;100.00;69501.63;5030206;28;20107;-65
2024/01/10 03:43:12;;;;;;;13.43;9.77;;;;;;;-146.58;100.00;69501.63;5032012;28;20029;-65
2024/01/10 03:45:37;;;;;;;9.43;8.23;;;;;;;-146.58;100.00;69501.63;5030216;28;20044;-65
2024/01/10 03:48:02;;;;;;;11.05;8.95;;;;;;;-146.58;100.00;69501.63;5032181;28;20029;-65
2024/01/10 03:50:28;;;;;;;11.35;9.45;;;;;;;-146.58;100.00;69501.63;5030545;28;20053;-65
2024/01/10 03:52:53;;;;;;;12.75;9.68;;;;;;;-146.58;100.00;69501.63;5031660;28;20021;-64
2024/01/10 03:55:19;;;;;;;10.68;8.52;;;;;;;-146.58;100.00;69501.63;5030422;28;20045;-63
2024/01/10 03:57:44;;;;;;;10.80;8.50;;;;;;;-146.58;100.00;69501.63;5031846;28;20079;-63
2024/01/10 04:00:10;;;;;;;12.85;8.23;;;;;;;-146.58;100.00;69501.63;5029937;28;20041;-63
2024/01/10 04:02:41;;;;;;;8.60;7.35;;;;;;;-146.58;100.00;69501.63;5031526;28;20431;-64
2024/01/10 04:05:09;;;;;;;9.93;8.80;;;;;;;-146.58;100.00;69501.63;5030452;28;20045;-63
2024/01/10 04:07:34;;;;;;;14.07;8.68;;;;;;;-146.58;100.00;69501.63;5031502;28;20029;-64
2024/01/10 04:10:00;;;;;;;8.77;7.45;;;;;;;-146.58;100.00;69501.63;5030322;28;20515;-63
2024/01/10 04:12:25;;;;;;;13.18;8.63;;;;;;;-146.58;100.00;69501.63;5031967;28;20025;-63
2024/01/10 04:14:51;;;;;;;18.95;11.27;;;;;;;-146.58;100.00;69501.63;5029657;28;20440;-63
2024/01/10 04:17:16;;;;;;;10.25;8.15;;;;;;;-146.58;100.00;69501.63;5031174;28;20029;-64
2024/01/10 04:19:41;;;;;;;11.93;9.05;;;;;;;-146.58;100.00;69501.63;5029701;28;20528;-63
2024/01/10 04:22:07;;;;;;;11.30;8.70;;;;;;;-146.58;100.00;69501.63;5031235;28;20028;-64
2024/01/10 04:24:32;;;;;;;10.65;8.25;;;;;;;-146.58;100.00;69501.63;5029806;28;20110;-63
2024/01/10 04:26:57;;;;;;;15.35;9.80;;;;;;;-146.58;100.00;69501.63;5031486;28;20033;-64
2024/01/10 04:29:23;;;;;;;8.82;7.47;;;;;;;-146.58;100.00;69501.63;5029480;28;20037;-63
2024/01/10 04:31:48;;;;;;;12.32;8.57;;;;;;;-146.58;100.00;69501.63;5031193;28;20026;-63
2024/01/10 04:34:14;;;;;;;12.98;8.88;;;;;;;-146.58;100.00;69501.63;5030254;28;20051;-63
2024/01/10 04:36:39;;;;;;;13.40;8.93;;;;;;;-146.58;100.00;69501.63;5030444;28;20036;-63
2024/01/10 04:39:04;;;;;;;11.52;8.73;;;;;;;-146.58;100.00;69501.63;5029794;28;20052;-63
2024/01/10 04:41:30;;;;;;;10.55;9.35;;;;;;;-146.58;100.00;69501.63;5030990;28;20028;-64
2024/01/10 04:43:55;;;;;;;10.88;8.48;;;;;;;-146.58;100.00;69501.63;5029592;28;20507;-63
2024/01/10 04:46:20;;;;;;;16.85;9.88;;;;;;;-146.58;100.00;69501.63;5029737;28;20025;-64
2024/01/10 04:48:46;;;;;;;14.93;9.90;;;;;;;-146.58;100.00;69501.63;5029193;28;20033;-63
2024/01/10 04:51:11;;;;;;;12.80;9.70;;;;;;;-146.58;100.00;69501.63;5030500;28;20017;-64
2024/01/10 04:53:36;;;;;;;20.13;12.68;;;;;;;-146.58;100.00;69501.63;5029289;28;20476;-64
2024/01/10 04:56:02;;;;;;;15.48;11.85;;;;;;;-146.58;100.00;69501.63;5031006;28;20522;-65
2024/01/10 04:58:29;;;;;;;14.50;9.95;;;;;;;-146.58;100.00;69501.63;5030296;28;20033;-65
2024/01/10 05:00:55;;;;;;;15.13;10.18;;;;;;;-146.58;100.00;69501.63;5029345;28;20049;-65
2024/01/10 05:03:20;;;;;;;17.08;10.85;;;;;;;-146.58;100.00;69501.63;5030844;28;20028;-65
2024/01/10 05:05:45;;;;;;;12.82;10.10;;;;;;;-146.58;100.00;69501.63;5028925;28;20048;-65
2024/01/10 05:08:11;;;;;;;15.85;11.60;;;;;;;-146.58;100.00;69501.63;5030802;28;20091;-65
2024/01/10 05:10:36;;;;;;;15.48;11.02;;;;;;;-146.58;100.00;69501.63;5029143;28;20056;-66
2024/01/10 05:13:02;;;;;;;19.30;11.35;;;;;;;-146.58;100.00;69501.63;5030407;28;20028;-62
2024/01/10 05:15:28;;;;;;;16.27;11.02;;;;;;;-146.58;100.00;69501.63;5028339;28;20048;-62
2024/01/10 05:17:53;;;;;;;12.13;10.65;;;;;;;-146.58;100.00;69501.63;5032240;28;20021;-62
2024/01/10 05:20:18;;;;;;;19.50;11.18;;;;;;;-146.58;100.00;69501.63;5032897;28;20053;-63
2024/01/10 05:22:44;;;;;;;18.55;12.23;;;;;;;-146.58;100.00;69501.63;5034234;28;20024;-62
2024/01/10 05:25:09;;;;;;;15.90;11.38;;;;;;;-146.58;100.00;69501.63;5033487;28;20500;-62
2024/01/10 05:27:35;;;;;;;19.73;12.57;;;;;;;-146.58;100.00;69501.63;5034580;28;20026;-62
2024/01/10 05:30:00;;;;;;;20.50;14.35;;;;;;;-146.58;100.00;69501.63;5032876;28;20034;-62
2024/01/10 05:32:26;;;;;;;17.48;11.40;;;;;;;-146.58;100.00;69501.63;5034619;28;20041;-62
2024/01/10 05:34:52;;;;;;;19.05;12.90;;;;;;;-146.58;100.00;69501.63;5033050;28;20045;-63
2024/01/10 05:37:17;;;;;;;22.05;11.85;;;;;;;-146.58;100.00;69501.63;5033085;28;20476;-62
2024/01/10 05:39:43;;;;;;;19.80;12.75;;;;;;;-146.58;100.00;69501.63;5032308;28;20049;-62
2024/01/10 05:42:08;;;;;;;16.67;13.55;;;;;;;-146.58;100.00;69501.63;5034450;28;20379;-63
2024/01/10 05:44:34;;;;;;;19.50;15.57;;;;;;;-146.58;100.00;69501.63;5031828;28;20041;-62
2024/01/10 05:46:59;;;;;;;16.85;12.52;;;;;;;-146.58;100.00;69501.63;5034462;28;20048;-62
2024/01/10 05:49:25;;;;;;;21.35;13.05;;;;;;;-146.58;100.00;69501.63;5032718;28;20068;-62
2024/01/10 05:51:50;;;;;;;15.55;10.75;;;;;;;-146.58;100.00;69501.63;5033615;28;20505;-62
2024/01/10 05:54:17;;;;;;;18.85;15.65;;;;;;;-146.58;100.00;69501.63;5032925;28;20132;-62
2024/01/10 05:56:43;;;;;;;19.02;11.60;;;;;;;-146.58;100.00;69501.63;5033776;28;20481;-62
2024/01/10 05:59:08;;;;;;;22.05;13.13;;;;;;;-146.58;100.00;69501.63;5032343;28;20095;-62
2024/01/10 06:01:33;;;;;;;21.20;13.82;;;;;;;-146.58;100.00;69501.63;5033904;28;20029;-62
2024/01/10 06:03:59;;;;;;;17.83;13.23;;;;;;;-146.58;100.00;69501.63;5032704;28;20048;-62
2024/01/10 06:06:24;;;;;;;15.90;11.70;;;;;;;-146.58;100.00;69501.63;5033648;28;20021;-62
2024/01/10 06:08:50;;;;;;;19.00;13.77;;;;;;;-146.58;100.00;69501.63;5032414;28;20049;-62
2024/01/10 06:11:15;;;;;;;21.55;14.45;;;;;;;-146.58;100.00;69501.63;5034167;28;20017;-63
2024/01/10 06:13:41;;;;;;;23.30;14.95;;;;;;;-146.58;100.00;69501.63;5031832;28;20431;-62
2024/01/10 06:16:07;;;;;;;19.42;12.25;;;;;;;-146.58;100.00;69501.63;5033812;28;20022;-62
2024/01/10 06:18:32;;;;;;;19.42;12.80;;;;;;;-146.58;100.00;69501.63;5032131;28;20105;-61
2024/01/10 06:20:58;;;;;;;18.80;13.20;;;;;;;-146.58;100.00;69501.63;5033294;28;20025;-61
2024/01/10 06:23:23;;;;;;;19.17;14.23;;;;;;;-146.58;100.00;69501.63;5033667;28;20013;-61
2024/01/10 06:25:49;;;;;;;20.38;13.43;;;;;;;-146.58;100.00;69501.63;5032048;28;20405;-62
2024/01/10 06:28:14;;;;;;;18.00;13.15;;;;;;;-146.58;100.00;69501.63;5033220;28;20034;-62
2024/01/10 06:30:39;;;;;;;22.00;14.65;;;;;;;-146.58;100.00;69501.63;5030612;28;20037;-63
2024/01/10 06:33:06;;;;;;;26.95;13.63;;;;;;;-146.58;100.00;69501.63;5033585;28;20029;-62
2024/01/10 06:35:32;;;;;;;26.98;16.08;;;;;;;-146.58;100.00;69501.63;5031554;28;20049;-61
2024/01/10 06:37:57;;;;;;;23.55;13.85;;;;;;;-146.58;100.00;69501.63;5033270;28;20026;-62
2024/01/10 06:40:22;;;;;;;22.20;16.13;;;;;;;-146.58;100.00;69501.63;5031798;28;20050;-62
2024/01/10 06:42:48;;;;;;;19.17;14.52;;;;;;;-146.58;100.00;69501.63;5032859;28;20210;-62
2024/01/10 06:45:14;;;;;;;27.23;15.65;;;;;;;-146.58;100.00;69501.63;5032000;28;20042;-61
2024/01/10 06:47:39;;;;;;;21.17;15.27;;;;;;;-146.58;100.00;69501.63;5033111;28;20035;-63
2024/01/10 06:50:05;;;;;;;31.00;16.73;;;;;;;-146.58;100.00;69501.63;5031459;28;20040;-62
2024/01/10 06:52:31;;;;;;;24.63;14.98;;;;;;;-146.58;100.00;69501.63;5032870;28;20031;-62
2024/01/10 06:54:57;;;;;;;20.80;15.68;;;;;;;-146.58;100.00;69501.63;5031770;28;20136;-62
2024/01/10 06:57:22;;;;;;;20.60;15.05;;;;;;;-146.58;100.00;69501.63;5032668;28;20029;-62
2024/01/10 06:59:48;;;;;;;18.63;15.15;;;;;;;-146.58;100.00;69501.63;5031612;28;20041;-62
2024/01/10 07:02:14;;;;;;;21.88;14.68;;;;;;;-146.58;100.00;69501.63;5033032;28;20038;-62
2024/01/10 07:04:39;;;;;;;29.45;15.50;;;;;;;-146.58;100.00;69501.63;5030995;28;20068;-62
2024/01/10 07:07:05;;;;;;;20.05;15.10;;;;;;;-146.58;100.00;69501.63;5033300;28;20140;-62
2024/01/10 07:09:31;;;;;;;25.08;16.90;;;;;;;-146.58;100.00;69501.63;5031195;28;20571;-62
2024/01/10 07:11:56;;;;;;;26.90;15.77;;;;;;;-146.58;100.00;69501.63;5032125;28;20040;-64
2024/01/10 07:14:22;;;;;;;19.88;15.27;;;;;;;-146.58;100.00;69501.63;5030941;28;20099;-59
2024/01/10 07:16:47;;;;;;;23.35;15.95;;;;;;;-146.58;100.00;69501.63;5032642;28;20025;-59
2024/01/10 07:19:13;;;;;;;18.13;13.45;;;;;;;-146.58;100.00;69501.63;5031020;28;20045;-60
2024/01/10 07:21:40;;;;;;;26.70;15.30;;;;;;;-146.58;100.00;69501.63;5032421;28;20550;-59
2024/01/10 07:24:06;;;;;;;19.63;13.90;;;;;;;-146.58;100.00;69501.63;5031390;28;20037;-60
2024/01/10 07:26:31;;;;;;;20.17;14.00;;;;;;;-146.58;100.00;69501.63;5032049;28;20473;-59
2024/01/10 07:28:56;;;;;;;26.63;17.30;;;;;;;-146.58;100.00;69501.63;5031168;28;20041;-59
2024/01/10 07:31:23;;;;;;;27.30;19.15;;;;;;;-146.58;100.00;69501.63;5032352;28;20021;-58
2024/01/10 07:33:48;;;;;;;23.10;16.75;;;;;;;-146.58;100.00;69501.63;5030672;28;20021;-58
2024/01/10 07:36:14;;;;;;;25.20;17.02;;;;;;;-146.58;100.00;69501.63;5032093;28;20504;-59
2024/01/10 07:38:39;;;;;;;23.80;16.73;;;;;;;-146.58;100.00;69501.63;5030584;28;20030;-59
2024/01/10 07:41:04;;;;;;;24.85;16.63;;;;;;;-146.58;100.00;69501.63;5031564;28;20028;-59
2024/01/10 07:43:30;;;;;;;24.30;15.55;;;;;;;-146.58;100.00;69501.63;5031754;28;20018;-59
2024/01/10 07:45:55;;;;;;;32.25;18.08;;;;;;;-146.58;100.00;69501.63;5030785;28;20048;-59
2024/01/10 07:48:20;;;;;;;29.23;17.63;;;;;;;-146.58;100.00;69501.63;5032092;28;20473;-59
2024/01/10 07:50:46;;;;;;;26.25;17.70;;;;;;;-146.58;100.00;69501.63;5029872;28;20042;-59
2024/01/10 07:53:11;;;;;;;22.13;15.57;;;;;;;-146.58;100.00;69501.63;5032040;28;20033;-59
2024/01/10 07:55:37;;;;;;;25.02;15.65;;;;;;;-146.58;100.00;69501.63;5030192;28;20116;-59
2024/01/10 07:58:03;;;;;;;29.45;18.25;;;;;;;-146.58;100.00;69501.63;5031830;28;20032;-59
2024/01/10 08:00:30;;;;;;;31.23;15.43;;;;;;;-146.58;100.00;69501.63;5030134;28;20041;-59
2024/01/10 08:02:55;;;;;;;28.48;17.77;;;;;;;-146.58;100.00;69501.63;5029875;28;20021;-59
2024/01/10 08:05:21;;;;;;;24.33;18.23;;;;;;;-146.58;100.00;69501.63;5029709;28;20048;-59
2024/01/10 08:07:46;;;;;;;24.23;15.90;;;;;;;-146.58;100.00;69501.63;5031493;28;20476;-59
2024/01/10 08:10:13;;;;;;;26.33;17.98;;;;;;;-146.58;100.00;69501.63;5030216;28;20034;-59
2024/01/10 08:12:41;;;;;;;26.38;15.60;;;;;;;-146.58;100.00;69501.63;5031286;28;20028;-59
2024/01/10 08:15:07;;;;;;;24.70;16.63;;;;;;;-146.58;100.00;69501.63;5030127;28;20069;-59
2024/01/10 08:17:33;;;;;;;21.48;16.02;;;;;;;-146.58;100.00;69501.63;5031184;28;20087;-59
2024/01/10 08:19:58;;;;;;;23.70;14.88;;;;;;;-146.58;100.00;69501.63;5029697;28;20061;-59
2024/01/10 08:22:24;;;;;;;29.58;19.20;;;;;;;-146.58;100.00;69501.63;5031562;28;20033;-59
2024/01/10 08:24:49;;;;;;;32.40;17.45;;;;;;;-146.58;100.00;69501.63;5027744;28;20471;-60
2024/01/10 08:27:15;;;;;;;26.50;16.80;;;;;;;-146.58;100.00;69501.63;5031232;28;20036;-59
2024/01/10 08:29:40;;;;;;;24.77;15.25;;;;;;;-146.58;100.00;69501.63;5029899;28;20072;-59
2024/01/10 08:32:05;;;;;;;24.92;17.73;;;;;;;-146.58;100.00;69501.63;5030233;28;20033;-59
2024/01/10 08:34:31;;;;;;;31.92;17.77;;;;;;;-146.58;100.00;69501.63;5028376;28;20099;-59
2024/01/10 08:36:57;;;;;;;18.80;14.00;;;;;;;-146.58;100.00;69501.63;5030981;28;20041;-59
2024/01/10 08:39:24;;;;;;;25.95;16.75;;;;;;;-146.58;100.00;69501.63;5029844;28;20523;-59
2024/01/10 08:41:49;;;;;;;23.80;15.00;;;;;;;-146.58;100.00;69501.63;5030680;28;20022;-59
2024/01/10 08:44:15;;;;;;;23.20;14.02;;;;;;;-146.58;100.00;69501.63;5029956;28;20064;-59
2024/01/10 08:46:41;;;;;;;22.10;14.80;;;;;;;-146.58;100.00;69501.63;5030815;28;20021;-59
2024/01/10 08:49:06;;;;;;;24.08;14.55;;;;;;;-146.58;100.00;69501.63;5029281;28;20040;-59
2024/01/10 08:51:31;;;;;;;19.23;13.07;;;;;;;-146.58;100.00;69501.63;5030759;28;20024;-59
2024/01/10 08:53:57;;;;;;;24.30;16.15;;;;;;;-146.58;100.00;69501.63;5029255;28;20492;-59
2024/01/10 08:56:23;;;;;;;24.55;16.10;;;;;;;-146.58;100.00;69501.63;5029278;28;20044;-59
2024/01/10 08:58:49;;;;;;;22.10;14.23;;;;;;;-146.58;100.00;69501.63;5029410;28;20083;-59
2024/01/10 09:01:14;;;;;;;20.63;13.43;;;;;;;-146.58;100.00;69501.63;5031230;28;20033;-59
2024/01/10 09:03:40;;;;;;;23.17;14.63;;;;;;;-146.58;100.00;69501.63;5029104;28;20021;-59
2024/01/10 09:06:07;;;;;;;20.80;13.27;;;;;;;-146.58;100.00;69501.63;5030860;28;20033;-59
2024/01/10 09:08:33;;;;;;;21.92;14.68;;;;;;;-146.58;100.00;69501.63;5029475;28;20022;-59
2024/01/10 09:10:58;;;;;;;23.20;14.85;;;;;;;-146.58;100.00;69501.63;5030450;28;20022;-59
2024/01/10 09:13:23;;;;;;;24.10;14.80;;;;;;;-146.58;100.00;69501.63;5030947;28;20022;-60
2024/01/10 09:15:49;;;;;;;22.17;13.55;;;;;;;-146.58;100.00;69501.63;5029079;28;20076;-60
2024/01/10 09:18:14;;;;;;;19.20;13.52;;;;;;;-146.58;100.00;69501.63;5030484;28;20500;-59
2024/01/10 09:20:40;;;;;;;23.70;16.58;;;;;;;-146.58;100.00;69501.63;5028949;28;20050;-60
2024/01/10 09:23:05;;;;;;;23.02;14.60;;;;;;;-146.58;100.00;69501.63;5030680;28;20026;-60
2024/01/10 09:25:30;;;;;;;23.73;14.13;;;;;;;-146.58;100.00;69501.63;5028808;28;20049;-60
2024/01/10 09:27:56;;;;;;;23.75;16.67;;;;;;;-146.58;100.00;69501.63;5030881;28;20091;-60
2024/01/10 09:30:21;;;;;;;23.17;16.65;;;;;;;-146.58;100.00;69501.63;5029172;28;20041;-60
2024/01/10 09:32:47;;;;;;;22.48;14.60;;;;;;;-146.58;100.00;69501.63;5030187;28;20559;-60
2024/01/10 09:35:12;;;;;;;25.15;16.67;;;;;;;-146.58;100.00;69501.63;5029191;28;20048;-60
2024/01/10 09:37:38;;;;;;;20.33;16.00;;;;;;;-146.58;100.00;69501.63;5030293;28;20052;-60
2024/01/10 09:40:06;;;;;;;26.33;16.02;;;;;;;-146.58;100.00;69501.63;5028855;28;20374;-60
2024/01/10 09:42:33;;;;;;;25.80;15.02;;;;;;;-146.58;100.00;69501.63;5030664;28;20033;-59
2024/01/10 09:44:58;;;;;;;21.00;13.45;;;;;;;-146.58;100.00;69501.63;5029160;28;20041;-60
2024/01/10 09:47:24;;;;;;;26.45;15.13;;;;;;;-146.58;100.00;69501.63;5030181;28;20033;-60
2024/01/10 09:49:51;;;;;;;23.17;16.00;;;;;;;-146.58;100.00;69501.63;5028849;28;20095;-60
2024/01/10 09:52:24;;;;;;;17.55;11.90;;;;;;;-146.58;100.00;69501.63;5030774;28;20025;-60
2024/01/10 09:54:56;;;;;;;19.30;12.88;;;;;;;-146.58;100.00;69501.63;5028509;28;20562;-60
2024/01/10 09:57:25;;;;;;;20.50;15.48;;;;;;;-146.58;100.00;69501.63;5030349;28;20033;-60
2024/01/10 09:59:51;;;;;;;22.40;15.27;;;;;;;-146.58;100.00;69501.63;5028869;28;20096;-60
2024/01/10 10:02:18;;;;;;;22.95;15.30;;;;;;;-146.58;100.00;69501.63;5030058;28;20053;-60
2024/01/10 10:04:51;;;;;;;25.85;15.75;;;;;;;-146.58;100.00;69501.63;5031360;28;20057;-60
2024/01/10 10:07:17;;;;;;;21.90;14.88;;;;;;;-146.58;100.00;69501.63;5034042;28;20057;-60
2024/01/10 10:09:42;;;;;;;23.15;14.65;;;;;;;-146.58;100.00;69501.63;5032144;28;20064;-60
2024/01/10 10:12:08;;;;;;;19.58;15.45;;;;;;;-146.58;100.00;69501.63;5032762;28;20084;-60
2024/01/10 10:14:33;;;;;;;18.63;14.85;;;;;;;-146.58;100.00;69501.63;5032165;28;20072;-57
2024/01/10 10:17:15;;;;;;;19.00;15.00;;;;;;;-146.58;100.00;69501.63;5033757;28;20440;-58
2024/01/10 10:19:40;;;;;;;23.52;14.70;;;;;;;-146.58;100.00;69501.63;5032160;28;20088;-57
2024/01/10 10:22:12;;;;;;;19.65;12.95;;;;;;;-146.58;100.00;69501.63;5033764;28;20029;-57
2024/01/10 10:24:39;;;;;;;20.98;15.55;;;;;;;-146.58;100.00;69501.63;5031675;28;20045;-57
2024/01/10 10:27:11;;;;;;;20.83;14.35;;;;;;;-146.58;100.00;69501.63;5033689;28;20029;-57
2024/01/10 10:29:39;;;;;;;22.33;12.30;;;;;;;-146.58;100.00;69501.63;5032116;28;20042;-58
2024/01/10 10:32:06;;;;;;;19.25;14.45;;;;;;;-146.58;100.00;69501.63;5033807;28;20461;-57
2024/01/10 10:34:34;;;;;;;19.35;14.38;;;;;;;-146.58;100.00;69501.63;5031879;28;20053;-58
2024/01/10 10:37:00;;;;;;;21.88;15.18;;;;;;;-146.58;100.00;69501.63;5033432;28;20045;-59
2024/01/10 10:39:25;;;;;;;22.75;14.95;;;;;;;-146.58;100.00;69501.63;5031736;28;20555;-58
2024/01/10 10:41:53;;;;;;;24.17;14.27;;;;;;;-146.58;100.00;69501.63;5033333;28;20033;-58
2024/01/10 10:44:23;;;;;;;19.38;14.45;;;;;;;-146.58;100.00;69501.63;5032288;28;20171;-58
2024/01/10 10:46:56;;;;;;;16.20;12.15;;;;;;;-146.58;100.00;69501.63;5032854;28;20419;-58
2024/01/10 10:49:29;;;;;;;24.20;13.07;;;;;;;-146.58;100.00;69501.63;5031940;28;20034;-58
2024/01/10 10:51:57;;;;;;;23.30;15.02;;;;;;;-146.58;100.00;69501.63;5033219;28;20053;-58
2024/01/10 10:54:25;;;;;;;21.43;16.20;;;;;;;-146.58;100.00;69501.63;5031470;28;20550;-58